sensor_id;sensor_type;location;lat;lon;timestamp;pressure;altitude;pressure_sealevel;temperature;humidity
56006;BME280;41888;44.696;10.522;2023-03-24T00:00:46;100515.38;;;10.79;100.00
56006;BME280;41888;44.696;10.522;2023-03-24T00:03:13;100511.69;;;10.53;100.00
56006;BME280;41888;44.696;10.522;2023-03-24T00:05:42;100520.91;;;10.51;100.00
56006;BME280;41888;44.696;10.522;2023-03-24T00:08:09;100525.59;;;10.49;100.00
56006;BME280;41888;44.696;10.522;2023-03-24T00:10:36;100520.28;;;10.55;100.00
56006;BME280;41888;44.696;10.522;2023-03-24T00:13:02;100523.31;;;10.39;100.00
56006;BME280;41888;44.696;10.522;2023-03-24T00:15:29;100526.16;;;10.25;100.00
56006;BME280;41888;44.696;10.522;2023-03-24T00:17:56;100525.66;;;10.08;100.00
56006;BME280;41888;44.696;10.522;2023-03-24T00:20:24;100521.09;;;9.95;100.00
56006;BME280;41888;44.696;10.522;2023-03-24T00:22:53;100524.53;;;9.89;100.00
56006;BME280;41888;44.696;10.522;2023-03-24T00:25:26;100522.09;;;9.88;100.00
56006;BME280;41888;44.696;10.522;2023-03-24T00:27:54;100518.28;;;10.10;100.00
56006;BME280;41888;44.696;10.522;2023-03-24T00:30:20;100517.53;;;10.23;100.00
56006;BME280;41888;44.696;10.522;2023-03-24T00:32:48;100516.78;;;10.35;100.00
56006;BME280;41888;44.696;10.522;2023-03-24T00:35:15;100524.53;;;10.37;100.00
56006;BME280;41888;44.696;10.522;2023-03-24T00:37:43;100518.81;;;10.33;100.00
56006;BME280;41888;44.696;10.522;2023-03-24T00:40:15;100521.06;;;10.36;100.00
56006;BME280;41888;44.696;10.522;2023-03-24T00:42:43;100518.03;;;10.46;100.00
56006;BME280;41888;44.696;10.522;2023-03-24T00:45:13;100517.59;;;10.42;100.00
56006;BME280;41888;44.696;10.522;2023-03-24T00:47:40;100513.53;;;10.46;100.00
56006;BME280;41888;44.696;10.522;2023-03-24T00:50:13;100515.97;;;10.54;100.00
56006;BME280;41888;44.696;10.522;2023-03-24T00:52:41;100509.22;;;10.58;100.00
56006;BME280;41888;44.696;10.522;2023-03-24T00:55:11;100513.75;;;10.51;100.00
56006;BME280;41888;44.696;10.522;2023-03-24T00:57:42;100515.91;;;10.22;100.00
56006;BME280;41888;44.696;10.522;2023-03-24T01:00:16;100515.03;;;10.14;100.00
56006;BME280;41888;44.696;10.522;2023-03-24T01:02:45;100520.75;;;10.11;100.00
56006;BME280;41888;44.696;10.522;2023-03-24T01:05:26;100519.97;;;10.18;100.00
56006;BME280;41888;44.696;10.522;2023-03-24T01:07:55;100530.53;;;9.98;100.00
56006;BME280;41888;44.696;10.522;2023-03-24T01:10:23;100526.00;;;9.92;100.00
56006;BME280;41888;44.696;10.522;2023-03-24T01:12:57;100529.38;;;9.72;100.00
56006;BME280;41888;44.696;10.522;2023-03-24T01:15:26;100518.13;;;9.70;100.00
56006;BME280;41888;44.696;10.522;2023-03-24T01:17:53;100518.16;;;9.77;100.00
56006;BME280;41888;44.696;10.522;2023-03-24T01:20:21;100519.31;;;9.68;100.00
56006;BME280;41888;44.696;10.522;2023-03-24T01:22:49;100513.81;;;9.69;100.00
56006;BME280;41888;44.696;10.522;2023-03-24T01:25:25;100511.56;;;9.66;100.00
56006;BME280;41888;44.696;10.522;2023-03-24T01:27:53;100509.19;;;9.85;100.00
56006;BME280;41888;44.696;10.522;2023-03-24T01:30:24;100500.19;;;9.86;100.00
56006;BME280;41888;44.696;10.522;2023-03-24T01:32:52;100498.59;;;9.91;100.00
56006;BME280;41888;44.696;10.522;2023-03-24T01:35:19;100496.13;;;9.83;100.00
56006;BME280;41888;44.696;10.522;2023-03-24T01:37:46;100497.66;;;9.64;100.00
56006;BME280;41888;44.696;10.522;2023-03-24T01:40:22;100498.28;;;9.32;100.00
56006;BME280;41888;44.696;10.522;2023-03-24T01:42:49;100503.53;;;9.25;100.00
56006;BME280;41888;44.696;10.522;2023-03-24T01:50:48;100498.03;;;9.27;100.00
56006;BME280;41888;44.696;10.522;2023-03-24T01:53:16;100497.50;;;9.38;100.00
56006;BME280;41888;44.696;10.522;2023-03-24T01:55:45;100501.38;;;9.36;100.00
56006;BME280;41888;44.696;10.522;2023-03-24T01:58:12;100510.19;;;9.15;100.00
56006;BME280;41888;44.696;10.522;2023-03-24T02:00:39;100513.31;;;9.18;100.00
56006;BME280;41888;44.696;10.522;2023-03-24T02:03:12;100502.63;;;9.12;100.00
56006;BME280;41888;44.696;10.522;2023-03-24T02:05:44;100496.94;;;9.15;100.00
56006;BME280;41888;44.696;10.522;2023-03-24T02:11:00;100502.16;;;9.02;100.00
56006;BME280;41888;44.696;10.522;2023-03-24T02:13:27;100498.97;;;8.85;100.00
56006;BME280;41888;44.696;10.522;2023-03-24T02:22:23;100483.88;;;8.64;100.00
56006;BME280;41888;44.696;10.522;2023-03-24T02:27:44;100492.09;;;8.48;100.00
56006;BME280;41888;44.696;10.522;2023-03-24T02:46:38;100478.78;;;8.41;100.00
56006;BME280;41888;44.696;10.522;2023-03-24T02:51:51;100478.19;;;8.25;100.00
56006;BME280;41888;44.696;10.522;2023-03-24T02:54:31;100484.25;;;8.19;100.00
56006;BME280;41888;44.696;10.522;2023-03-24T02:57:19;100478.94;;;8.19;100.00
56006;BME280;41888;44.696;10.522;2023-03-24T03:02:27;100479.16;;;8.02;100.00
56006;BME280;41888;44.696;10.522;2023-03-24T03:05:13;100470.97;;;7.97;100.00
56006;BME280;41888;44.696;10.522;2023-03-24T03:07:43;100471.31;;;8.30;100.00
56006;BME280;41888;44.696;10.522;2023-03-24T03:10:17;100468.66;;;8.30;100.00
56006;BME280;41888;44.696;10.522;2023-03-24T03:12:46;100471.13;;;8.53;100.00
56006;BME280;41888;44.696;10.522;2023-03-24T03:15:45;100468.72;;;8.58;100.00
56006;BME280;41888;44.696;10.522;2023-03-24T03:18:13;100458.00;;;8.66;100.00
56006;BME280;41888;44.696;10.522;2023-03-24T03:20:47;100461.91;;;8.70;100.00
56006;BME280;41888;44.696;10.522;2023-03-24T03:23:19;100457.56;;;8.63;100.00
56006;BME280;41888;44.696;10.522;2023-03-24T03:25:51;100462.66;;;8.64;100.00
56006;BME280;41888;44.696;10.522;2023-03-24T03:28:23;100459.63;;;8.67;100.00
56006;BME280;41888;44.696;10.522;2023-03-24T03:30:58;100465.56;;;8.27;100.00
56006;BME280;41888;44.696;10.522;2023-03-24T03:33:32;100454.56;;;8.44;100.00
56006;BME280;41888;44.696;10.522;2023-03-24T03:36:17;100455.59;;;8.29;100.00
56006;BME280;41888;44.696;10.522;2023-03-24T03:41:24;100452.34;;;8.48;100.00
56006;BME280;41888;44.696;10.522;2023-03-24T03:43:50;100445.72;;;8.37;100.00
56006;BME280;41888;44.696;10.522;2023-03-24T03:46:17;100441.22;;;8.38;100.00
56006;BME280;41888;44.696;10.522;2023-03-24T03:48:44;100450.81;;;8.39;100.00
56006;BME280;41888;44.696;10.522;2023-03-24T03:51:12;100453.50;;;8.24;100.00
56006;BME280;41888;44.696;10.522;2023-03-24T03:53:47;100450.19;;;8.01;100.00
56006;BME280;41888;44.696;10.522;2023-03-24T03:56:19;100446.31;;;8.18;100.00
56006;BME280;41888;44.696;10.522;2023-03-24T03:58:46;100451.09;;;8.08;100.00
56006;BME280;41888;44.696;10.522;2023-03-24T04:01:17;100455.25;;;8.17;100.00
56006;BME280;41888;44.696;10.522;2023-03-24T04:04:17;100451.97;;;8.51;100.00
56006;BME280;41888;44.696;10.522;2023-03-24T04:15:28;100446.47;;;8.31;100.00
56006;BME280;41888;44.696;10.522;2023-03-24T04:18:24;100448.41;;;8.23;100.00
56006;BME280;41888;44.696;10.522;2023-03-24T04:23:55;100446.59;;;8.44;100.00
56006;BME280;41888;44.696;10.522;2023-03-24T04:31:34;100443.22;;;8.57;100.00
56006;BME280;41888;44.696;10.522;2023-03-24T04:34:14;100444.75;;;8.66;100.00
56006;BME280;41888;44.696;10.522;2023-03-24T04:36:44;100439.22;;;8.68;100.00
56006;BME280;41888;44.696;10.522;2023-03-24T04:39:18;100439.47;;;8.73;100.00
56006;BME280;41888;44.696;10.522;2023-03-24T04:41:55;100436.06;;;8.79;100.00
56006;BME280;41888;44.696;10.522;2023-03-24T04:44:23;100441.06;;;8.67;100.00
56006;BME280;41888;44.696;10.522;2023-03-24T04:46:52;100429.75;;;8.80;100.00
56006;BME280;41888;44.696;10.522;2023-03-24T04:49:20;100432.06;;;8.89;100.00
56006;BME280;41888;44.696;10.522;2023-03-24T04:51:50;100434.75;;;8.96;100.00
56006;BME280;41888;44.696;10.522;2023-03-24T04:54:17;100440.22;;;8.88;100.00
56006;BME280;41888;44.696;10.522;2023-03-24T04:56:51;100446.09;;;8.83;100.00
56006;BME280;41888;44.696;10.522;2023-03-24T04:59:18;100458.75;;;8.81;100.00
56006;BME280;41888;44.696;10.522;2023-03-24T05:01:45;100458.03;;;8.73;100.00
56006;BME280;41888;44.696;10.522;2023-03-24T05:04:19;100458.78;;;8.88;100.00
56006;BME280;41888;44.696;10.522;2023-03-24T05:06:46;100444.00;;;8.79;100.00
56006;BME280;41888;44.696;10.522;2023-03-24T05:09:18;100451.31;;;8.70;100.00
56006;BME280;41888;44.696;10.522;2023-03-24T05:11:46;100460.75;;;8.79;100.00
56006;BME280;41888;44.696;10.522;2023-03-24T05:14:13;100455.09;;;8.82;100.00
56006;BME280;41888;44.696;10.522;2023-03-24T05:16:40;100452.44;;;8.82;100.00
56006;BME280;41888;44.696;10.522;2023-03-24T05:19:07;100453.84;;;8.85;100.00
56006;BME280;41888;44.696;10.522;2023-03-24T05:21:34;100440.28;;;8.67;100.00
56006;BME280;41888;44.696;10.522;2023-03-24T05:24:00;100446.25;;;8.54;100.00
56006;BME280;41888;44.696;10.522;2023-03-24T05:26:26;100444.78;;;8.45;100.00
56006;BME280;41888;44.696;10.522;2023-03-24T05:28:53;100440.91;;;8.47;100.00
56006;BME280;41888;44.696;10.522;2023-03-24T05:31:19;100442.47;;;8.42;100.00
56006;BME280;41888;44.696;10.522;2023-03-24T05:33:46;100455.03;;;8.55;100.00
56006;BME280;41888;44.696;10.522;2023-03-24T05:36:13;100454.06;;;8.62;100.00
56006;BME280;41888;44.696;10.522;2023-03-24T05:38:39;100466.78;;;8.95;100.00
56006;BME280;41888;44.696;10.522;2023-03-24T05:41:06;100460.56;;;9.09;100.00
56006;BME280;41888;44.696;10.522;2023-03-24T05:43:32;100461.19;;;9.11;100.00
56006;BME280;41888;44.696;10.522;2023-03-24T05:45:59;100468.25;;;8.97;100.00
56006;BME280;41888;44.696;10.522;2023-03-24T05:48:25;100470.13;;;9.03;100.00
56006;BME280;41888;44.696;10.522;2023-03-24T05:50:52;100472.97;;;9.29;100.00
56006;BME280;41888;44.696;10.522;2023-03-24T05:53:19;100469.88;;;9.67;100.00
56006;BME280;41888;44.696;10.522;2023-03-24T05:55:45;100467.44;;;10.26;100.00
56006;BME280;41888;44.696;10.522;2023-03-24T05:58:12;100464.44;;;10.88;100.00
56006;BME280;41888;44.696;10.522;2023-03-24T06:00:38;100473.78;;;11.30;100.00
56006;BME280;41888;44.696;10.522;2023-03-24T06:03:05;100473.84;;;10.91;100.00
56006;BME280;41888;44.696;10.522;2023-03-24T06:05:31;100469.97;;;10.67;100.00
56006;BME280;41888;44.696;10.522;2023-03-24T06:07:58;100471.38;;;10.50;100.00
56006;BME280;41888;44.696;10.522;2023-03-24T06:10:27;100478.31;;;10.38;100.00
56006;BME280;41888;44.696;10.522;2023-03-24T06:12:54;100470.97;;;10.59;100.00
56006;BME280;41888;44.696;10.522;2023-03-24T06:15:21;100476.03;;;11.27;100.00
56006;BME280;41888;44.696;10.522;2023-03-24T06:17:49;100478.13;;;12.90;100.00
56006;BME280;41888;44.696;10.522;2023-03-24T06:20:16;100484.72;;;12.56;100.00
56006;BME280;41888;44.696;10.522;2023-03-24T06:22:45;100485.09;;;13.34;100.00
56006;BME280;41888;44.696;10.522;2023-03-24T06:25:14;100482.72;;;13.99;95.12
56006;BME280;41888;44.696;10.522;2023-03-24T06:27:44;100493.16;;;13.52;96.63
56006;BME280;41888;44.696;10.522;2023-03-24T06:30:15;100477.84;;;12.73;100.00
56006;BME280;41888;44.696;10.522;2023-03-24T06:32:43;100484.13;;;12.22;100.00
56006;BME280;41888;44.696;10.522;2023-03-24T06:35:16;100488.22;;;14.04;97.19
56006;BME280;41888;44.696;10.522;2023-03-24T06:37:42;100486.63;;;16.07;81.10
56006;BME280;41888;44.696;10.522;2023-03-24T06:40:10;100490.03;;;18.08;68.42
56006;BME280;41888;44.696;10.522;2023-03-24T06:42:39;100492.66;;;18.30;66.03
56006;BME280;41888;44.696;10.522;2023-03-24T06:45:06;100492.00;;;18.66;62.83
56006;BME280;41888;44.696;10.522;2023-03-24T06:47:33;100494.88;;;18.33;64.17
56006;BME280;41888;44.696;10.522;2023-03-24T06:49:59;100491.66;;;18.36;65.00
56006;BME280;41888;44.696;10.522;2023-03-24T06:52:25;100492.72;;;20.70;56.43
56006;BME280;41888;44.696;10.522;2023-03-24T06:54:52;100494.06;;;21.13;54.30
56006;BME280;41888;44.696;10.522;2023-03-24T06:57:19;100499.56;;;21.98;52.28
56006;BME280;41888;44.696;10.522;2023-03-24T06:59:46;100504.00;;;22.71;49.30
56006;BME280;41888;44.696;10.522;2023-03-24T07:02:13;100508.91;;;22.64;48.66
56006;BME280;41888;44.696;10.522;2023-03-24T07:04:40;100495.22;;;24.32;46.62
56006;BME280;41888;44.696;10.522;2023-03-24T07:07:07;100503.94;;;24.48;45.11
56006;BME280;41888;44.696;10.522;2023-03-24T07:09:33;100505.25;;;23.71;47.76
56006;BME280;41888;44.696;10.522;2023-03-24T07:12:00;100504.97;;;24.15;45.38
56006;BME280;41888;44.696;10.522;2023-03-24T07:14:28;100504.13;;;24.19;45.05
56006;BME280;41888;44.696;10.522;2023-03-24T07:16:54;100500.00;;;21.45;53.69
56006;BME280;41888;44.696;10.522;2023-03-24T07:19:21;100498.44;;;21.14;54.55
56006;BME280;41888;44.696;10.522;2023-03-24T07:21:47;100493.22;;;20.37;59.56
56006;BME280;41888;44.696;10.522;2023-03-24T07:24:16;100495.75;;;19.39;63.96
56006;BME280;41888;44.696;10.522;2023-03-24T07:26:42;100498.19;;;17.91;74.05
56006;BME280;41888;44.696;10.522;2023-03-24T07:29:09;100500.53;;;16.77;83.16
56006;BME280;41888;44.696;10.522;2023-03-24T07:31:36;100495.72;;;16.34;88.00
56006;BME280;41888;44.696;10.522;2023-03-24T07:34:04;100491.41;;;16.05;89.99
56006;BME280;41888;44.696;10.522;2023-03-24T07:36:30;100506.41;;;15.78;88.73
56006;BME280;41888;44.696;10.522;2023-03-24T07:38:56;100504.59;;;15.20;94.65
56006;BME280;41888;44.696;10.522;2023-03-24T07:41:23;100505.28;;;15.39;93.66
56006;BME280;41888;44.696;10.522;2023-03-24T07:43:51;100506.78;;;15.23;93.38
56006;BME280;41888;44.696;10.522;2023-03-24T07:46:18;100508.78;;;15.16;95.00
56006;BME280;41888;44.696;10.522;2023-03-24T07:48:44;100500.88;;;15.21;97.82
56006;BME280;41888;44.696;10.522;2023-03-24T07:51:10;100503.44;;;15.16;100.00
56006;BME280;41888;44.696;10.522;2023-03-24T07:53:36;100504.25;;;15.05;100.00
56006;BME280;41888;44.696;10.522;2023-03-24T07:56:03;100504.13;;;15.00;100.00
56006;BME280;41888;44.696;10.522;2023-03-24T07:58:29;100497.59;;;15.19;100.00
56006;BME280;41888;44.696;10.522;2023-03-24T08:00:55;100499.22;;;15.43;100.00
56006;BME280;41888;44.696;10.522;2023-03-24T08:03:22;100503.81;;;15.54;100.00
56006;BME280;41888;44.696;10.522;2023-03-24T08:05:50;100506.69;;;15.65;100.00
56006;BME280;41888;44.696;10.522;2023-03-24T08:08:16;100510.41;;;15.75;100.00
56006;BME280;41888;44.696;10.522;2023-03-24T08:10:42;100514.69;;;15.76;100.00
56006;BME280;41888;44.696;10.522;2023-03-24T08:13:10;100510.31;;;16.10;100.00
56006;BME280;41888;44.696;10.522;2023-03-24T08:15:37;100509.34;;;16.16;99.87
56006;BME280;41888;44.696;10.522;2023-03-24T08:18:03;100521.66;;;16.29;98.27
56006;BME280;41888;44.696;10.522;2023-03-24T08:20:29;100527.81;;;16.41;91.73
56006;BME280;41888;44.696;10.522;2023-03-24T08:22:55;100531.47;;;16.63;90.19
56006;BME280;41888;44.696;10.522;2023-03-24T08:25:24;100526.59;;;16.77;89.85
56006;BME280;41888;44.696;10.522;2023-03-24T08:27:52;100520.72;;;16.63;88.55
56006;BME280;41888;44.696;10.522;2023-03-24T08:30:23;100527.84;;;16.86;87.88
56006;BME280;41888;44.696;10.522;2023-03-24T08:32:59;100525.16;;;16.86;87.54
56006;BME280;41888;44.696;10.522;2023-03-24T08:35:33;100530.09;;;16.94;86.41
56006;BME280;41888;44.696;10.522;2023-03-24T08:38:03;100526.34;;;16.78;87.10
56006;BME280;41888;44.696;10.522;2023-03-24T08:40:30;100525.84;;;16.36;85.66
56006;BME280;41888;44.696;10.522;2023-03-24T08:43:01;100520.59;;;16.01;88.11
56006;BME280;41888;44.696;10.522;2023-03-24T08:45:30;100514.13;;;15.86;90.58
56006;BME280;41888;44.696;10.522;2023-03-24T08:47:58;100510.72;;;15.90;89.46
56006;BME280;41888;44.696;10.522;2023-03-24T08:50:27;100512.88;;;16.05;89.59
56006;BME280;41888;44.696;10.522;2023-03-24T08:52:55;100512.78;;;16.00;89.38
56006;BME280;41888;44.696;10.522;2023-03-24T08:55:22;100512.56;;;16.01;88.43
56006;BME280;41888;44.696;10.522;2023-03-24T08:57:49;100507.03;;;16.08;90.08
56006;BME280;41888;44.696;10.522;2023-03-24T09:00:18;100507.84;;;16.09;88.70
56006;BME280;41888;44.696;10.522;2023-03-24T09:02:47;100514.34;;;16.13;87.62
56006;BME280;41888;44.696;10.522;2023-03-24T09:05:14;100503.44;;;16.02;91.81
56006;BME280;41888;44.696;10.522;2023-03-24T09:07:42;100503.19;;;16.04;94.84
56006;BME280;41888;44.696;10.522;2023-03-24T09:10:10;100494.88;;;15.77;93.47
56006;BME280;41888;44.696;10.522;2023-03-24T09:12:38;100504.00;;;15.65;96.61
56006;BME280;41888;44.696;10.522;2023-03-24T09:15:06;100498.28;;;15.73;93.72
56006;BME280;41888;44.696;10.522;2023-03-24T09:17:34;100503.22;;;15.92;92.47
56006;BME280;41888;44.696;10.522;2023-03-24T09:20:00;100496.28;;;16.08;88.47
56006;BME280;41888;44.696;10.522;2023-03-24T09:22:27;100497.38;;;16.07;92.05
56006;BME280;41888;44.696;10.522;2023-03-24T09:24:53;100496.28;;;16.08;89.01
56006;BME280;41888;44.696;10.522;2023-03-24T09:27:19;100492.97;;;16.01;85.66
56006;BME280;41888;44.696;10.522;2023-03-24T09:29:45;100510.59;;;16.25;85.23
56006;BME280;41888;44.696;10.522;2023-03-24T09:32:12;100502.75;;;16.52;85.15
56006;BME280;41888;44.696;10.522;2023-03-24T09:34:39;100507.53;;;16.62;83.95
56006;BME280;41888;44.696;10.522;2023-03-24T09:37:06;100507.69;;;16.72;78.77
56006;BME280;41888;44.696;10.522;2023-03-24T09:39:35;100506.75;;;16.95;78.56
56006;BME280;41888;44.696;10.522;2023-03-24T09:42:04;100529.53;;;17.25;75.96
56006;BME280;41888;44.696;10.522;2023-03-24T09:44:38;100533.84;;;17.43;77.57
56006;BME280;41888;44.696;10.522;2023-03-24T09:47:12;100530.47;;;17.69;77.71
56006;BME280;41888;44.696;10.522;2023-03-24T09:49:41;100527.16;;;18.06;74.91
56006;BME280;41888;44.696;10.522;2023-03-24T09:52:13;100521.28;;;18.36;72.25
56006;BME280;41888;44.696;10.522;2023-03-24T09:57:23;100496.16;;;19.16;66.14
56006;BME280;41888;44.696;10.522;2023-03-24T09:59:50;100484.34;;;19.27;65.38
56006;BME280;41888;44.696;10.522;2023-03-24T10:02:19;100487.56;;;19.66;63.56
56006;BME280;41888;44.696;10.522;2023-03-24T10:04:46;100491.66;;;19.78;64.04
56006;BME280;41888;44.696;10.522;2023-03-24T10:09:57;100487.06;;;20.56;58.73
56006;BME280;41888;44.696;10.522;2023-03-24T10:12:35;100489.47;;;20.73;59.21
56006;BME280;41888;44.696;10.522;2023-03-24T10:15:31;100503.28;;;20.97;58.27
56006;BME280;41888;44.696;10.522;2023-03-24T10:23:41;100490.81;;;21.26;52.40
56006;BME280;41888;44.696;10.522;2023-03-24T10:26:38;100495.63;;;21.55;52.60
56006;BME280;41888;44.696;10.522;2023-03-24T10:29:20;100490.03;;;20.70;53.04
56006;BME280;41888;44.696;10.522;2023-03-24T10:31:50;100491.09;;;20.94;52.02
56006;BME280;41888;44.696;10.522;2023-03-24T10:34:18;100491.91;;;21.00;52.37
56006;BME280;41888;44.696;10.522;2023-03-24T10:36:45;100497.81;;;20.31;53.54
56006;BME280;41888;44.696;10.522;2023-03-24T10:39:15;100489.94;;;20.24;54.70
56006;BME280;41888;44.696;10.522;2023-03-24T10:41:42;100486.94;;;20.26;55.54
56006;BME280;41888;44.696;10.522;2023-03-24T10:44:11;100487.09;;;19.84;55.93
56006;BME280;41888;44.696;10.522;2023-03-24T10:46:44;100495.22;;;19.42;58.32
56006;BME280;41888;44.696;10.522;2023-03-24T10:51:47;100461.06;;;19.58;57.65
56006;BME280;41888;44.696;10.522;2023-03-24T10:54:27;100460.94;;;19.90;57.36
56006;BME280;41888;44.696;10.522;2023-03-24T10:59:34;100454.22;;;21.49;50.65
56006;BME280;41888;44.696;10.522;2023-03-24T11:02:17;100457.06;;;21.83;50.82
56006;BME280;41888;44.696;10.522;2023-03-24T11:05:00;100455.13;;;21.94;50.25
56006;BME280;41888;44.696;10.522;2023-03-24T11:07:47;100454.84;;;22.44;48.33
56006;BME280;41888;44.696;10.522;2023-03-24T11:10:24;100456.88;;;22.62;47.21
56006;BME280;41888;44.696;10.522;2023-03-24T11:15:24;100443.53;;;22.66;46.62
56006;BME280;41888;44.696;10.522;2023-03-24T11:17:54;100444.22;;;22.48;45.93
56006;BME280;41888;44.696;10.522;2023-03-24T11:20:35;100439.84;;;22.18;45.42
56006;BME280;41888;44.696;10.522;2023-03-24T11:23:28;100438.22;;;21.53;47.78
56006;BME280;41888;44.696;10.522;2023-03-24T11:26:27;100437.72;;;22.10;47.01
56006;BME280;41888;44.696;10.522;2023-03-24T11:29:04;100425.81;;;22.45;46.58
56006;BME280;41888;44.696;10.522;2023-03-24T11:31:34;100425.09;;;22.68;46.20
56006;BME280;41888;44.696;10.522;2023-03-24T11:34:14;100419.19;;;23.19;46.03
56006;BME280;41888;44.696;10.522;2023-03-24T11:36:55;100410.34;;;23.08;45.74
56006;BME280;41888;44.696;10.522;2023-03-24T11:39:30;100413.16;;;23.22;44.63
56006;BME280;41888;44.696;10.522;2023-03-24T11:44:48;100418.38;;;23.42;44.78
56006;BME280;41888;44.696;10.522;2023-03-24T11:47:35;100417.16;;;23.95;43.08
56006;BME280;41888;44.696;10.522;2023-03-24T11:52:53;100406.84;;;22.45;46.82
56006;BME280;41888;44.696;10.522;2023-03-24T12:09:12;100393.78;;;20.59;51.94
56006;BME280;41888;44.696;10.522;2023-03-24T12:14:33;100399.53;;;22.06;48.55
56006;BME280;41888;44.696;10.522;2023-03-24T12:17:16;100380.34;;;22.65;47.38
56006;BME280;41888;44.696;10.522;2023-03-24T12:20:07;100377.41;;;22.62;43.20
56006;BME280;41888;44.696;10.522;2023-03-24T12:25:29;100369.78;;;21.96;45.00
56006;BME280;41888;44.696;10.522;2023-03-24T12:30:44;100354.97;;;22.22;44.12
56006;BME280;41888;44.696;10.522;2023-03-24T12:36:24;100351.44;;;22.85;42.03
56006;BME280;41888;44.696;10.522;2023-03-24T12:38:58;100345.03;;;22.76;42.14
56006;BME280;41888;44.696;10.522;2023-03-24T12:53:13;100327.06;;;22.80;41.81
56006;BME280;41888;44.696;10.522;2023-03-24T13:03:32;100306.19;;;22.22;42.52
56006;BME280;41888;44.696;10.522;2023-03-24T13:06:06;100298.22;;;22.36;42.41
56006;BME280;41888;44.696;10.522;2023-03-24T13:08:38;100295.94;;;22.77;41.91
56006;BME280;41888;44.696;10.522;2023-03-24T13:11:10;100290.19;;;23.26;41.15
56006;BME280;41888;44.696;10.522;2023-03-24T13:13:41;100295.50;;;23.12;41.19
56006;BME280;41888;44.696;10.522;2023-03-24T13:16:25;100294.41;;;23.13;41.14
56006;BME280;41888;44.696;10.522;2023-03-24T13:18:57;100284.56;;;23.17;39.68
56006;BME280;41888;44.696;10.522;2023-03-24T13:21:28;100275.13;;;23.15;40.72
56006;BME280;41888;44.696;10.522;2023-03-24T13:24:09;100276.06;;;23.43;39.80
56006;BME280;41888;44.696;10.522;2023-03-24T13:31:56;100264.53;;;23.32;41.21
56006;BME280;41888;44.696;10.522;2023-03-24T13:34:31;100256.53;;;23.03;41.00
56006;BME280;41888;44.696;10.522;2023-03-24T13:37:09;100262.28;;;23.21;40.67
56006;BME280;41888;44.696;10.522;2023-03-24T13:39:38;100264.78;;;23.36;40.04
56006;BME280;41888;44.696;10.522;2023-03-24T13:42:04;100248.88;;;23.48;39.57
56006;BME280;41888;44.696;10.522;2023-03-24T13:44:40;100255.78;;;23.59;39.42
56006;BME280;41888;44.696;10.522;2023-03-24T13:47:14;100245.91;;;23.44;38.82
56006;BME280;41888;44.696;10.522;2023-03-24T13:50:02;100241.38;;;23.21;39.32
56006;BME280;41888;44.696;10.522;2023-03-24T13:52:42;100247.25;;;23.28;39.69
56006;BME280;41888;44.696;10.522;2023-03-24T13:55:17;100249.66;;;23.30;39.50
56006;BME280;41888;44.696;10.522;2023-03-24T13:57:57;100243.22;;;23.26;39.07
56006;BME280;41888;44.696;10.522;2023-03-24T14:00:26;100247.44;;;22.94;38.09
56006;BME280;41888;44.696;10.522;2023-03-24T14:07:50;100232.63;;;23.05;39.26
56006;BME280;41888;44.696;10.522;2023-03-24T14:13:17;100225.03;;;22.60;39.65
56006;BME280;41888;44.696;10.522;2023-03-24T14:15:56;100210.31;;;22.42;39.89
56006;BME280;41888;44.696;10.522;2023-03-24T14:21:01;100212.91;;;22.28;39.40
56006;BME280;41888;44.696;10.522;2023-03-24T14:26:28;100212.00;;;21.41;41.11
56006;BME280;41888;44.696;10.522;2023-03-24T14:28:56;100212.00;;;21.41;41.09
56006;BME280;41888;44.696;10.522;2023-03-24T14:31:30;100204.28;;;21.59;41.56
56006;BME280;41888;44.696;10.522;2023-03-24T14:36:57;100207.69;;;22.08;39.56
56006;BME280;41888;44.696;10.522;2023-03-24T14:39:51;100196.53;;;22.39;40.00
56006;BME280;41888;44.696;10.522;2023-03-24T14:45:04;100198.09;;;22.45;38.44
56006;BME280;41888;44.696;10.522;2023-03-24T14:47:37;100199.00;;;22.59;38.38
56006;BME280;41888;44.696;10.522;2023-03-24T14:50:18;100194.91;;;22.85;39.30
56006;BME280;41888;44.696;10.522;2023-03-24T14:52:53;100196.66;;;22.95;39.01
56006;BME280;41888;44.696;10.522;2023-03-24T14:55:20;100186.03;;;22.80;37.79
56006;BME280;41888;44.696;10.522;2023-03-24T14:57:52;100184.50;;;23.11;37.89
56006;BME280;41888;44.696;10.522;2023-03-24T15:05:37;100170.28;;;23.00;37.10
56006;BME280;41888;44.696;10.522;2023-03-24T15:08:21;100178.88;;;22.65;37.75
56006;BME280;41888;44.696;10.522;2023-03-24T15:11:00;100176.59;;;22.29;38.31
56006;BME280;41888;44.696;10.522;2023-03-24T15:13:44;100170.50;;;22.38;39.09
56006;BME280;41888;44.696;10.522;2023-03-24T15:23:55;100190.50;;;21.89;38.97
56006;BME280;41888;44.696;10.522;2023-03-24T15:26:23;100196.16;;;21.98;39.62
56006;BME280;41888;44.696;10.522;2023-03-24T15:29:01;100196.22;;;21.87;39.08
56006;BME280;41888;44.696;10.522;2023-03-24T15:31:30;100190.59;;;21.79;39.79
56006;BME280;41888;44.696;10.522;2023-03-24T15:34:26;100194.69;;;21.76;39.12
56006;BME280;41888;44.696;10.522;2023-03-24T15:36:58;100180.59;;;21.74;39.27
56006;BME280;41888;44.696;10.522;2023-03-24T15:39:37;100175.56;;;21.63;39.46
56006;BME280;41888;44.696;10.522;2023-03-24T15:42:05;100171.97;;;21.38;39.93